sensor_id;sensor_type;location;lat;lon;timestamp;P1;durP1;ratioP1;P2;durP2;ratioP2
21505;SDS011;10914;48.886;9.394;2022-08-19T00:01:11;35.03;;;32.53;;
21505;SDS011;10914;48.886;9.394;2022-08-19T00:03:36;36.22;;;33.75;;
21505;SDS011;10914;48.886;9.394;2022-08-19T00:06:02;36.17;;;33.57;;
21505;SDS011;10914;48.886;9.394;2022-08-19T00:08:27;34.00;;;31.63;;
21505;SDS011;10914;48.886;9.394;2022-08-19T00:10:52;34.30;;;31.93;;
21505;SDS011;10914;48.886;9.394;2022-08-19T00:13:17;36.47;;;34.00;;
21505;SDS011;10914;48.886;9.394;2022-08-19T00:15:43;34.90;;;32.45;;
21505;SDS011;10914;48.886;9.394;2022-08-19T00:18:09;36.50;;;33.83;;
21505;SDS011;10914;48.886;9.394;2022-08-19T00:20:34;36.75;;;34.25;;
21505;SDS011;10914;48.886;9.394;2022-08-19T00:23:00;35.78;;;33.28;;
21505;SDS011;10914;48.886;9.394;2022-08-19T00:25:25;34.33;;;31.88;;
21505;SDS011;10914;48.886;9.394;2022-08-19T00:27:50;35.23;;;32.73;;
21505;SDS011;10914;48.886;9.394;2022-08-19T00:30:15;35.97;;;33.27;;
21505;SDS011;10914;48.886;9.394;2022-08-19T00:32:41;35.22;;;32.63;;
21505;SDS011;10914;48.886;9.394;2022-08-19T00:35:06;34.73;;;32.33;;
21505;SDS011;10914;48.886;9.394;2022-08-19T00:37:31;35.85;;;33.25;;
21505;SDS011;10914;48.886;9.394;2022-08-19T00:39:58;35.97;;;33.47;;
21505;SDS011;10914;48.886;9.394;2022-08-19T00:42:23;33.42;;;31.13;;
21505;SDS011;10914;48.886;9.394;2022-08-19T00:44:48;36.60;;;33.90;;
21505;SDS011;10914;48.886;9.394;2022-08-19T00:47:15;34.97;;;32.47;;
21505;SDS011;10914;48.886;9.394;2022-08-19T00:52:09;34.87;;;32.37;;
21505;SDS011;10914;48.886;9.394;2022-08-19T00:54:37;36.50;;;33.80;;
21505;SDS011;10914;48.886;9.394;2022-08-19T00:57:04;40.75;;;37.80;;
21505;SDS011;10914;48.886;9.394;2022-08-19T00:59:31;40.03;;;37.08;;
21505;SDS011;10914;48.886;9.394;2022-08-19T01:01:56;40.30;;;37.45;;
21505;SDS011;10914;48.886;9.394;2022-08-19T01:04:22;38.00;;;35.30;;
21505;SDS011;10914;48.886;9.394;2022-08-19T01:06:47;37.50;;;34.90;;
21505;SDS011;10914;48.886;9.394;2022-08-19T01:09:12;38.05;;;35.25;;
21505;SDS011;10914;48.886;9.394;2022-08-19T01:11:39;37.40;;;34.65;;
21505;SDS011;10914;48.886;9.394;2022-08-19T01:14:05;48.45;;;45.25;;
21505;SDS011;10914;48.886;9.394;2022-08-19T01:16:31;44.67;;;41.63;;
21505;SDS011;10914;48.886;9.394;2022-08-19T01:18:57;45.15;;;42.05;;
21505;SDS011;10914;48.886;9.394;2022-08-19T01:21:37;43.88;;;40.67;;
21505;SDS011;10914;48.886;9.394;2022-08-19T01:24:04;42.10;;;39.10;;
21505;SDS011;10914;48.886;9.394;2022-08-19T01:26:29;41.63;;;38.60;;
21505;SDS011;10914;48.886;9.394;2022-08-19T01:28:56;42.57;;;39.57;;
21505;SDS011;10914;48.886;9.394;2022-08-19T01:31:23;39.83;;;36.97;;
21505;SDS011;10914;48.886;9.394;2022-08-19T01:33:49;42.78;;;39.67;;
21505;SDS011;10914;48.886;9.394;2022-08-19T01:36:22;38.83;;;36.03;;
21505;SDS011;10914;48.886;9.394;2022-08-19T01:38:47;43.00;;;39.85;;
21505;SDS011;10914;48.886;9.394;2022-08-19T01:41:13;41.67;;;38.70;;
21505;SDS011;10914;48.886;9.394;2022-08-19T01:43:38;43.60;;;40.40;;
21505;SDS011;10914;48.886;9.394;2022-08-19T01:46:04;39.58;;;36.63;;
21505;SDS011;10914;48.886;9.394;2022-08-19T01:48:37;42.40;;;39.15;;
21505;SDS011;10914;48.886;9.394;2022-08-19T01:51:03;51.25;;;47.75;;
21505;SDS011;10914;48.886;9.394;2022-08-19T01:53:28;41.80;;;38.70;;
21505;SDS011;10914;48.886;9.394;2022-08-19T01:55:54;54.08;;;50.42;;
21505;SDS011;10914;48.886;9.394;2022-08-19T01:58:21;53.60;;;50.00;;
21505;SDS011;10914;48.886;9.394;2022-08-19T02:00:47;48.38;;;44.88;;
21505;SDS011;10914;48.886;9.394;2022-08-19T02:03:13;49.90;;;46.40;;
21505;SDS011;10914;48.886;9.394;2022-08-19T02:05:38;44.73;;;41.43;;
21505;SDS011;10914;48.886;9.394;2022-08-19T02:08:04;46.00;;;42.80;;
21505;SDS011;10914;48.886;9.394;2022-08-19T02:10:29;43.35;;;40.22;;
21505;SDS011;10914;48.886;9.394;2022-08-19T02:12:55;48.97;;;45.47;;
21505;SDS011;10914;48.886;9.394;2022-08-19T02:15:20;49.33;;;45.73;;
21505;SDS011;10914;48.886;9.394;2022-08-19T02:17:46;51.20;;;47.40;;
21505;SDS011;10914;48.886;9.394;2022-08-19T02:20:11;43.42;;;40.15;;
21505;SDS011;10914;48.886;9.394;2022-08-19T02:22:37;42.92;;;39.92;;
21505;SDS011;10914;48.886;9.394;2022-08-19T02:25:02;40.75;;;37.70;;
21505;SDS011;10914;48.886;9.394;2022-08-19T02:27:29;42.88;;;39.78;;
21505;SDS011;10914;48.886;9.394;2022-08-19T02:29:55;47.65;;;44.08;;
21505;SDS011;10914;48.886;9.394;2022-08-19T02:32:21;48.63;;;44.80;;
21505;SDS011;10914;48.886;9.394;2022-08-19T02:34:46;50.97;;;47.17;;
21505;SDS011;10914;48.886;9.394;2022-08-19T02:37:12;50.30;;;46.90;;
21505;SDS011;10914;48.886;9.394;2022-08-19T02:39:56;47.60;;;44.10;;
21505;SDS011;10914;48.886;9.394;2022-08-19T02:42:22;51.83;;;48.03;;
21505;SDS011;10914;48.886;9.394;2022-08-19T02:44:47;46.85;;;43.47;;
21505;SDS011;10914;48.886;9.394;2022-08-19T02:47:12;46.97;;;43.13;;
21505;SDS011;10914;48.886;9.394;2022-08-19T02:49:39;48.30;;;44.83;;
21505;SDS011;10914;48.886;9.394;2022-08-19T02:52:05;47.60;;;44.13;;
21505;SDS011;10914;48.886;9.394;2022-08-19T02:54:30;46.67;;;43.17;;
21505;SDS011;10914;48.886;9.394;2022-08-19T02:56:55;47.25;;;43.85;;
21505;SDS011;10914;48.886;9.394;2022-08-19T02:59:20;49.40;;;46.00;;
21505;SDS011;10914;48.886;9.394;2022-08-19T03:01:46;53.03;;;49.22;;
21505;SDS011;10914;48.886;9.394;2022-08-19T03:04:12;47.92;;;44.53;;
21505;SDS011;10914;48.886;9.394;2022-08-19T03:06:38;49.00;;;45.35;;
21505;SDS011;10914;48.886;9.394;2022-08-19T03:09:03;46.92;;;43.33;;
21505;SDS011;10914;48.886;9.394;2022-08-19T03:11:30;57.45;;;53.55;;
21505;SDS011;10914;48.886;9.394;2022-08-19T03:13:56;43.05;;;39.85;;
21505;SDS011;10914;48.886;9.394;2022-08-19T03:16:21;42.85;;;39.47;;
21505;SDS011;10914;48.886;9.394;2022-08-19T03:18:47;45.92;;;42.60;;
21505;SDS011;10914;48.886;9.394;2022-08-19T03:21:20;55.55;;;51.60;;
21505;SDS011;10914;48.886;9.394;2022-08-19T03:23:46;44.83;;;41.42;;
21505;SDS011;10914;48.886;9.394;2022-08-19T03:26:12;47.00;;;43.25;;
21505;SDS011;10914;48.886;9.394;2022-08-19T03:28:39;46.47;;;42.90;;
21505;SDS011;10914;48.886;9.394;2022-08-19T03:31:09;42.25;;;38.80;;
21505;SDS011;10914;48.886;9.394;2022-08-19T03:33:36;44.08;;;40.67;;
21505;SDS011;10914;48.886;9.394;2022-08-19T03:36:03;42.03;;;38.53;;
21505;SDS011;10914;48.886;9.394;2022-08-19T03:38:28;49.38;;;45.53;;
21505;SDS011;10914;48.886;9.394;2022-08-19T03:40:54;43.33;;;40.05;;
21505;SDS011;10914;48.886;9.394;2022-08-19T03:43:19;51.13;;;47.07;;
21505;SDS011;10914;48.886;9.394;2022-08-19T03:45:44;52.30;;;48.38;;
21505;SDS011;10914;48.886;9.394;2022-08-19T03:48:09;58.60;;;54.40;;
21505;SDS011;10914;48.886;9.394;2022-08-19T03:50:38;51.60;;;47.60;;
21505;SDS011;10914;48.886;9.394;2022-08-19T03:53:03;58.55;;;54.05;;
21505;SDS011;10914;48.886;9.394;2022-08-19T03:55:29;54.43;;;50.37;;
21505;SDS011;10914;48.886;9.394;2022-08-19T03:57:54;49.77;;;45.77;;
21505;SDS011;10914;48.886;9.394;2022-08-19T04:00:19;51.87;;;47.87;;
21505;SDS011;10914;48.886;9.394;2022-08-19T04:02:44;50.73;;;46.97;;
21505;SDS011;10914;48.886;9.394;2022-08-19T04:05:09;44.28;;;40.90;;
21505;SDS011;10914;48.886;9.394;2022-08-19T04:07:34;44.77;;;40.97;;
21505;SDS011;10914;48.886;9.394;2022-08-19T04:10:00;47.33;;;43.42;;
21505;SDS011;10914;48.886;9.394;2022-08-19T04:12:25;49.07;;;45.23;;
21505;SDS011;10914;48.886;9.394;2022-08-19T04:14:50;88.25;;;82.70;;
21505;SDS011;10914;48.886;9.394;2022-08-19T04:17:16;69.57;;;64.93;;
21505;SDS011;10914;48.886;9.394;2022-08-19T04:19:41;65.75;;;61.10;;
21505;SDS011;10914;48.886;9.394;2022-08-19T04:22:07;83.60;;;78.22;;
21505;SDS011;10914;48.886;9.394;2022-08-19T04:24:33;67.22;;;62.65;;
21505;SDS011;10914;48.886;9.394;2022-08-19T04:27:02;53.08;;;48.88;;
21505;SDS011;10914;48.886;9.394;2022-08-19T04:29:28;59.58;;;55.05;;
21505;SDS011;10914;48.886;9.394;2022-08-19T04:31:54;58.03;;;53.42;;
21505;SDS011;10914;48.886;9.394;2022-08-19T04:34:21;69.38;;;64.45;;
21505;SDS011;10914;48.886;9.394;2022-08-19T04:36:47;55.05;;;50.95;;
21505;SDS011;10914;48.886;9.394;2022-08-19T04:39:16;75.43;;;70.22;;
21505;SDS011;10914;48.886;9.394;2022-08-19T04:41:41;47.25;;;43.10;;
21505;SDS011;10914;48.886;9.394;2022-08-19T04:44:25;45.42;;;41.67;;
21505;SDS011;10914;48.886;9.394;2022-08-19T04:46:51;49.10;;;44.70;;
21505;SDS011;10914;48.886;9.394;2022-08-19T04:49:17;51.58;;;47.25;;
21505;SDS011;10914;48.886;9.394;2022-08-19T04:51:44;47.53;;;43.33;;
21505;SDS011;10914;48.886;9.394;2022-08-19T04:54:10;51.33;;;46.72;;
21505;SDS011;10914;48.886;9.394;2022-08-19T04:56:36;51.35;;;46.83;;
21505;SDS011;10914;48.886;9.394;2022-08-19T04:59:01;53.22;;;48.92;;
21505;SDS011;10914;48.886;9.394;2022-08-19T05:01:30;53.60;;;49.22;;
21505;SDS011;10914;48.886;9.394;2022-08-19T05:03:57;53.83;;;49.47;;
21505;SDS011;10914;48.886;9.394;2022-08-19T05:06:23;54.35;;;49.95;;
21505;SDS011;10914;48.886;9.394;2022-08-19T05:08:48;52.78;;;48.20;;
21505;SDS011;10914;48.886;9.394;2022-08-19T05:11:34;53.83;;;49.35;;
21505;SDS011;10914;48.886;9.394;2022-08-19T05:14:00;48.70;;;44.58;;
21505;SDS011;10914;48.886;9.394;2022-08-19T05:16:25;49.07;;;44.77;;
21505;SDS011;10914;48.886;9.394;2022-08-19T05:18:51;50.45;;;46.00;;
21505;SDS011;10914;48.886;9.394;2022-08-19T05:21:35;50.35;;;46.08;;
21505;SDS011;10914;48.886;9.394;2022-08-19T05:24:19;47.67;;;43.55;;
21505;SDS011;10914;48.886;9.394;2022-08-19T05:26:46;45.67;;;41.47;;
21505;SDS011;10914;48.886;9.394;2022-08-19T05:29:12;46.80;;;42.88;;
21505;SDS011;10914;48.886;9.394;2022-08-19T05:31:38;52.50;;;48.08;;
21505;SDS011;10914;48.886;9.394;2022-08-19T05:34:03;51.25;;;46.85;;
21505;SDS011;10914;48.886;9.394;2022-08-19T05:36:32;46.65;;;42.65;;
21505;SDS011;10914;48.886;9.394;2022-08-19T05:38:59;50.05;;;45.53;;
21505;SDS011;10914;48.886;9.394;2022-08-19T05:41:24;47.53;;;43.28;;
21505;SDS011;10914;48.886;9.394;2022-08-19T05:43:54;51.65;;;46.85;;
21505;SDS011;10914;48.886;9.394;2022-08-19T05:46:20;51.05;;;46.55;;
21505;SDS011;10914;48.886;9.394;2022-08-19T05:48:46;51.15;;;46.67;;
21505;SDS011;10914;48.886;9.394;2022-08-19T05:51:11;46.25;;;42.22;;
21505;SDS011;10914;48.886;9.394;2022-08-19T05:53:36;48.63;;;44.50;;
21505;SDS011;10914;48.886;9.394;2022-08-19T05:56:09;50.70;;;46.45;;
21505;SDS011;10914;48.886;9.394;2022-08-19T05:58:34;53.33;;;48.83;;
21505;SDS011;10914;48.886;9.394;2022-08-19T06:01:00;49.70;;;45.70;;
21505;SDS011;10914;48.886;9.394;2022-08-19T06:03:30;52.63;;;48.22;;
21505;SDS011;10914;48.886;9.394;2022-08-19T06:05:56;49.33;;;44.85;;
21505;SDS011;10914;48.886;9.394;2022-08-19T06:08:24;50.10;;;45.95;;
21505;SDS011;10914;48.886;9.394;2022-08-19T06:10:49;58.65;;;54.05;;
21505;SDS011;10914;48.886;9.394;2022-08-19T06:13:14;58.63;;;54.00;;
21505;SDS011;10914;48.886;9.394;2022-08-19T06:15:39;55.23;;;50.53;;
21505;SDS011;10914;48.886;9.394;2022-08-19T06:18:09;56.45;;;51.85;;
21505;SDS011;10914;48.886;9.394;2022-08-19T06:20:34;52.00;;;47.40;;
21505;SDS011;10914;48.886;9.394;2022-08-19T06:22:59;45.17;;;41.07;;
21505;SDS011;10914;48.886;9.394;2022-08-19T06:25:24;47.35;;;43.15;;
21505;SDS011;10914;48.886;9.394;2022-08-19T06:27:49;47.03;;;42.80;;
21505;SDS011;10914;48.886;9.394;2022-08-19T06:30:15;47.50;;;43.25;;
21505;SDS011;10914;48.886;9.394;2022-08-19T06:32:41;48.95;;;44.47;;
21505;SDS011;10914;48.886;9.394;2022-08-19T06:35:06;48.47;;;44.17;;
21505;SDS011;10914;48.886;9.394;2022-08-19T06:37:33;51.25;;;47.10;;
21505;SDS011;10914;48.886;9.394;2022-08-19T06:39:58;45.67;;;41.67;;
21505;SDS011;10914;48.886;9.394;2022-08-19T06:42:23;47.55;;;43.05;;
21505;SDS011;10914;48.886;9.394;2022-08-19T06:44:48;45.75;;;41.90;;
21505;SDS011;10914;48.886;9.394;2022-08-19T06:47:18;50.17;;;45.58;;
21505;SDS011;10914;48.886;9.394;2022-08-19T06:49:43;45.83;;;41.63;;
21505;SDS011;10914;48.886;9.394;2022-08-19T06:52:09;48.30;;;43.95;;
21505;SDS011;10914;48.886;9.394;2022-08-19T06:54:38;48.75;;;44.08;;
21505;SDS011;10914;48.886;9.394;2022-08-19T06:57:04;47.72;;;43.47;;
21505;SDS011;10914;48.886;9.394;2022-08-19T06:59:30;45.92;;;41.92;;
21505;SDS011;10914;48.886;9.394;2022-08-19T07:01:58;47.85;;;43.72;;
21505;SDS011;10914;48.886;9.394;2022-08-19T07:04:25;46.15;;;42.25;;
21505;SDS011;10914;48.886;9.394;2022-08-19T07:06:55;44.55;;;40.85;;
21505;SDS011;10914;48.886;9.394;2022-08-19T07:09:21;48.28;;;44.13;;
21505;SDS011;10914;48.886;9.394;2022-08-19T07:11:47;48.05;;;43.85;;
21505;SDS011;10914;48.886;9.394;2022-08-19T07:14:13;45.63;;;41.78;;
21505;SDS011;10914;48.886;9.394;2022-08-19T07:16:39;44.90;;;41.00;;
21505;SDS011;10914;48.886;9.394;2022-08-19T07:19:05;49.45;;;44.97;;
21505;SDS011;10914;48.886;9.394;2022-08-19T07:21:30;46.08;;;42.08;;
21505;SDS011;10914;48.886;9.394;2022-08-19T07:23:59;45.72;;;41.80;;
21505;SDS011;10914;48.886;9.394;2022-08-19T07:26:29;47.72;;;43.30;;
21505;SDS011;10914;48.886;9.394;2022-08-19T07:28:55;48.72;;;44.22;;
21505;SDS011;10914;48.886;9.394;2022-08-19T07:31:21;50.60;;;46.38;;
21505;SDS011;10914;48.886;9.394;2022-08-19T07:33:48;49.70;;;45.65;;
21505;SDS011;10914;48.886;9.394;2022-08-19T07:36:15;48.67;;;44.55;;
21505;SDS011;10914;48.886;9.394;2022-08-19T07:38:42;46.55;;;42.53;;
21505;SDS011;10914;48.886;9.394;2022-08-19T07:41:12;48.83;;;44.33;;
21505;SDS011;10914;48.886;9.394;2022-08-19T07:43:38;49.20;;;44.80;;
21505;SDS011;10914;48.886;9.394;2022-08-19T07:46:06;47.83;;;43.63;;
21505;SDS011;10914;48.886;9.394;2022-08-19T07:48:32;47.88;;;43.33;;
21505;SDS011;10914;48.886;9.394;2022-08-19T07:51:01;52.45;;;47.72;;
21505;SDS011;10914;48.886;9.394;2022-08-19T07:53:28;45.58;;;41.47;;
21505;SDS011;10914;48.886;9.394;2022-08-19T07:55:53;50.40;;;46.00;;
21505;SDS011;10914;48.886;9.394;2022-08-19T07:58:19;52.53;;;48.23;;
21505;SDS011;10914;48.886;9.394;2022-08-19T08:00:46;46.03;;;41.95;;
21505;SDS011;10914;48.886;9.394;2022-08-19T08:03:11;44.53;;;40.50;;
21505;SDS011;10914;48.886;9.394;2022-08-19T08:05:37;47.03;;;42.92;;
21505;SDS011;10914;48.886;9.394;2022-08-19T08:08:21;49.30;;;45.20;;
21505;SDS011;10914;48.886;9.394;2022-08-19T08:11:05;43.85;;;40.05;;
21505;SDS011;10914;48.886;9.394;2022-08-19T08:13:30;50.55;;;46.38;;
21505;SDS011;10914;48.886;9.394;2022-08-19T08:15:56;44.70;;;40.72;;
21505;SDS011;10914;48.886;9.394;2022-08-19T08:18:22;43.42;;;39.42;;
21505;SDS011;10914;48.886;9.394;2022-08-19T08:20:48;44.75;;;40.92;;
21505;SDS011;10914;48.886;9.394;2022-08-19T08:23:13;44.77;;;40.97;;
21505;SDS011;10914;48.886;9.394;2022-08-19T08:25:50;45.90;;;41.97;;
21505;SDS011;10914;48.886;9.394;2022-08-19T08:28:15;49.13;;;44.85;;
21505;SDS011;10914;48.886;9.394;2022-08-19T08:30:41;44.08;;;40.35;;
21505;SDS011;10914;48.886;9.394;2022-08-19T08:33:07;47.72;;;43.63;;
21505;SDS011;10914;48.886;9.394;2022-08-19T08:35:33;47.25;;;43.45;;
21505;SDS011;10914;48.886;9.394;2022-08-19T08:37:58;50.15;;;46.00;;
21505;SDS011;10914;48.886;9.394;2022-08-19T08:40:28;45.90;;;42.10;;
21505;SDS011;10914;48.886;9.394;2022-08-19T08:45:54;47.28;;;43.38;;
21505;SDS011;10914;48.886;9.394;2022-08-19T08:48:22;47.42;;;43.47;;
21505;SDS011;10914;48.886;9.394;2022-08-19T08:50:49;50.78;;;46.47;;
21505;SDS011;10914;48.886;9.394;2022-08-19T08:53:17;46.67;;;42.85;;
21505;SDS011;10914;48.886;9.394;2022-08-19T08:55:42;47.25;;;43.20;;
21505;SDS011;10914;48.886;9.394;2022-08-19T09:00:38;48.17;;;44.13;;
21505;SDS011;10914;48.886;9.394;2022-08-19T09:03:04;48.38;;;44.42;;
21505;SDS011;10914;48.886;9.394;2022-08-19T09:11:04;46.20;;;42.30;;
21505;SDS011;10914;48.886;9.394;2022-08-19T09:13:34;44.53;;;40.72;;
21505;SDS011;10914;48.886;9.394;2022-08-19T09:16:04;49.13;;;44.83;;
21505;SDS011;10914;48.886;9.394;2022-08-19T09:18:40;54.40;;;49.88;;
21505;SDS011;10914;48.886;9.394;2022-08-19T09:21:06;54.80;;;50.15;;
21505;SDS011;10914;48.886;9.394;2022-08-19T09:23:33;58.60;;;54.00;;
21505;SDS011;10914;48.886;9.394;2022-08-19T09:25:58;50.13;;;46.05;;
21505;SDS011;10914;48.886;9.394;2022-08-19T09:28:23;47.00;;;43.10;;
21505;SDS011;10914;48.886;9.394;2022-08-19T09:30:49;55.97;;;50.85;;
21505;SDS011;10914;48.886;9.394;2022-08-19T09:33:16;55.35;;;51.00;;
21505;SDS011;10914;48.886;9.394;2022-08-19T09:35:41;50.40;;;46.45;;
21505;SDS011;10914;48.886;9.394;2022-08-19T09:38:06;52.57;;;48.23;;
21505;SDS011;10914;48.886;9.394;2022-08-19T09:40:31;52.07;;;47.90;;
21505;SDS011;10914;48.886;9.394;2022-08-19T09:42:57;57.40;;;52.45;;
21505;SDS011;10914;48.886;9.394;2022-08-19T09:45:22;49.20;;;45.08;;
21505;SDS011;10914;48.886;9.394;2022-08-19T09:47:50;46.00;;;41.80;;
21505;SDS011;10914;48.886;9.394;2022-08-19T09:50:16;50.00;;;45.80;;
21505;SDS011;10914;48.886;9.394;2022-08-19T09:52:43;47.53;;;43.58;;
21505;SDS011;10914;48.886;9.394;2022-08-19T09:55:08;49.70;;;45.40;;
21505;SDS011;10914;48.886;9.394;2022-08-19T09:57:34;54.63;;;50.28;;
21505;SDS011;10914;48.886;9.394;2022-08-19T09:59:59;52.45;;;48.05;;
21505;SDS011;10914;48.886;9.394;2022-08-19T10:02:25;57.25;;;52.78;;
21505;SDS011;10914;48.886;9.394;2022-08-19T10:04:50;64.65;;;59.85;;
21505;SDS011;10914;48.886;9.394;2022-08-19T10:07:34;81.03;;;75.13;;
21505;SDS011;10914;48.886;9.394;2022-08-19T10:10:00;86.40;;;80.22;;
21505;SDS011;10914;48.886;9.394;2022-08-19T10:12:25;73.50;;;67.90;;
21505;SDS011;10914;48.886;9.394;2022-08-19T10:14:51;100.88;;;94.30;;
21505;SDS011;10914;48.886;9.394;2022-08-19T10:17:18;66.63;;;61.67;;
21505;SDS011;10914;48.886;9.394;2022-08-19T10:19:44;77.85;;;72.40;;
21505;SDS011;10914;48.886;9.394;2022-08-19T10:22:09;72.65;;;67.00;;
21505;SDS011;10914;48.886;9.394;2022-08-19T10:24:39;65.20;;;60.05;;
21505;SDS011;10914;48.886;9.394;2022-08-19T10:27:04;72.95;;;67.38;;
21505;SDS011;10914;48.886;9.394;2022-08-19T10:29:30;64.55;;;59.42;;
21505;SDS011;10914;48.886;9.394;2022-08-19T10:31:57;74.78;;;69.05;;
21505;SDS011;10914;48.886;9.394;2022-08-19T10:34:22;81.40;;;75.47;;
21505;SDS011;10914;48.886;9.394;2022-08-19T10:36:47;71.85;;;66.28;;
21505;SDS011;10914;48.886;9.394;2022-08-19T10:39:13;57.30;;;52.43;;
21505;SDS011;10914;48.886;9.394;2022-08-19T10:41:39;48.17;;;43.85;;
21505;SDS011;10914;48.886;9.394;2022-08-19T10:44:05;55.20;;;50.40;;
21505;SDS011;10914;48.886;9.394;2022-08-19T10:46:31;60.58;;;55.67;;
21505;SDS011;10914;48.886;9.394;2022-08-19T10:48:58;47.10;;;43.28;;
21505;SDS011;10914;48.886;9.394;2022-08-19T10:51:23;53.75;;;49.25;;
21505;SDS011;10914;48.886;9.394;2022-08-19T10:54:07;69.63;;;64.03;;
21505;SDS011;10914;48.886;9.394;2022-08-19T10:56:32;80.25;;;74.55;;
21505;SDS011;10914;48.886;9.394;2022-08-19T10:59:17;80.05;;;74.45;;
21505;SDS011;10914;48.886;9.394;2022-08-19T11:01:43;54.35;;;49.95;;
21505;SDS011;10914;48.886;9.394;2022-08-19T11:04:09;84.97;;;79.38;;
21505;SDS011;10914;48.886;9.394;2022-08-19T11:06:36;61.28;;;56.55;;
21505;SDS011;10914;48.886;9.394;2022-08-19T11:09:03;70.90;;;65.65;;
21505;SDS011;10914;48.886;9.394;2022-08-19T11:11:29;66.70;;;61.58;;
21505;SDS011;10914;48.886;9.394;2022-08-19T11:13:55;76.53;;;70.85;;
21505;SDS011;10914;48.886;9.394;2022-08-19T11:16:21;54.13;;;50.00;;
21505;SDS011;10914;48.886;9.394;2022-08-19T11:18:48;74.60;;;69.25;;
21505;SDS011;10914;48.886;9.394;2022-08-19T11:21:16;75.25;;;69.82;;
21505;SDS011;10914;48.886;9.394;2022-08-19T11:23:45;54.28;;;49.58;;
21505;SDS011;10914;48.886;9.394;2022-08-19T11:26:12;51.03;;;46.55;;
21505;SDS011;10914;48.886;9.394;2022-08-19T11:28:37;53.55;;;49.00;;
21505;SDS011;10914;48.886;9.394;2022-08-19T11:31:03;72.68;;;67.28;;
21505;SDS011;10914;48.886;9.394;2022-08-19T11:33:31;52.88;;;48.33;;
21505;SDS011;10914;48.886;9.394;2022-08-19T11:36:00;59.33;;;54.03;;
21505;SDS011;10914;48.886;9.394;2022-08-19T11:38:26;90.70;;;84.10;;
21505;SDS011;10914;48.886;9.394;2022-08-19T11:40:55;76.85;;;71.32;;
21505;SDS011;10914;48.886;9.394;2022-08-19T11:43:20;64.57;;;59.58;;
21505;SDS011;10914;48.886;9.394;2022-08-19T11:45:45;87.43;;;81.53;;
21505;SDS011;10914;48.886;9.394;2022-08-19T11:48:13;96.13;;;89.60;;
21505;SDS011;10914;48.886;9.394;2022-08-19T11:50:39;106.95;;;100.15;;
21505;SDS011;10914;48.886;9.394;2022-08-19T11:53:07;90.65;;;84.38;;
21505;SDS011;10914;48.886;9.394;2022-08-19T11:55:36;75.73;;;70.07;;
21505;SDS011;10914;48.886;9.394;2022-08-19T11:58:01;90.38;;;84.18;;
21505;SDS011;10914;48.886;9.394;2022-08-19T12:00:26;89.37;;;83.30;;
21505;SDS011;10914;48.886;9.394;2022-08-19T12:02:51;102.50;;;95.80;;
21505;SDS011;10914;48.886;9.394;2022-08-19T12:05:17;74.55;;;68.93;;
21505;SDS011;10914;48.886;9.394;2022-08-19T12:07:42;98.70;;;92.30;;
21505;SDS011;10914;48.886;9.394;2022-08-19T12:10:09;78.03;;;72.63;;
21505;SDS011;10914;48.886;9.394;2022-08-19T12:12:34;72.43;;;67.53;;
21505;SDS011;10914;48.886;9.394;2022-08-19T12:14:59;73.50;;;68.22;;
21505;SDS011;10914;48.886;9.394;2022-08-19T12:17:25;47.63;;;43.58;;
21505;SDS011;10914;48.886;9.394;2022-08-19T12:19:50;55.42;;;50.78;;
21505;SDS011;10914;48.886;9.394;2022-08-19T12:22:16;52.08;;;47.63;;
21505;SDS011;10914;48.886;9.394;2022-08-19T12:24:41;50.70;;;46.50;;
21505;SDS011;10914;48.886;9.394;2022-08-19T12:27:06;48.87;;;44.87;;
21505;SDS011;10914;48.886;9.394;2022-08-19T12:29:31;56.77;;;52.37;;
21505;SDS011;10914;48.886;9.394;2022-08-19T12:31:57;51.28;;;47.00;;
21505;SDS011;10914;48.886;9.394;2022-08-19T12:34:27;52.75;;;48.28;;
21505;SDS011;10914;48.886;9.394;2022-08-19T12:36:55;50.67;;;46.38;;
21505;SDS011;10914;48.886;9.394;2022-08-19T12:39:20;55.13;;;50.58;;
21505;SDS011;10914;48.886;9.394;2022-08-19T12:41:46;50.43;;;46.33;;
21505;SDS011;10914;48.886;9.394;2022-08-19T12:44:12;51.10;;;46.63;;
21505;SDS011;10914;48.886;9.394;2022-08-19T12:46:37;52.20;;;47.93;;
21505;SDS011;10914;48.886;9.394;2022-08-19T12:49:02;67.37;;;62.23;;
21505;SDS011;10914;48.886;9.394;2022-08-19T12:51:28;58.30;;;53.92;;
21505;SDS011;10914;48.886;9.394;2022-08-19T12:53:53;63.55;;;59.10;;
21505;SDS011;10914;48.886;9.394;2022-08-19T12:56:18;64.65;;;59.65;;
21505;SDS011;10914;48.886;9.394;2022-08-19T12:58:44;43.47;;;39.95;;
21505;SDS011;10914;48.886;9.394;2022-08-19T13:01:10;49.37;;;45.57;;
21505;SDS011;10914;48.886;9.394;2022-08-19T13:03:36;47.17;;;43.53;;
21505;SDS011;10914;48.886;9.394;2022-08-19T13:06:02;47.63;;;43.90;;
21505;SDS011;10914;48.886;9.394;2022-08-19T13:08:27;48.72;;;44.97;;
21505;SDS011;10914;48.886;9.394;2022-08-19T13:10:52;48.20;;;44.13;;
21505;SDS011;10914;48.886;9.394;2022-08-19T13:13:18;46.42;;;42.55;;
21505;SDS011;10914;48.886;9.394;2022-08-19T13:15:44;47.65;;;43.55;;
21505;SDS011;10914;48.886;9.394;2022-08-19T13:18:10;45.33;;;41.45;;
21505;SDS011;10914;48.886;9.394;2022-08-19T13:20:36;47.25;;;43.33;;
21505;SDS011;10914;48.886;9.394;2022-08-19T13:23:02;51.25;;;46.95;;
21505;SDS011;10914;48.886;9.394;2022-08-19T13:25:27;43.33;;;39.58;;
21505;SDS011;10914;48.886;9.394;2022-08-19T13:27:52;46.95;;;43.00;;
21505;SDS011;10914;48.886;9.394;2022-08-19T13:30:20;48.78;;;44.70;;
21505;SDS011;10914;48.886;9.394;2022-08-19T13:33:04;50.58;;;46.40;;
21505;SDS011;10914;48.886;9.394;2022-08-19T13:35:36;49.53;;;45.53;;
21505;SDS011;10914;48.886;9.394;2022-08-19T13:38:01;50.30;;;46.10;;
21505;SDS011;10914;48.886;9.394;2022-08-19T13:40:29;74.15;;;69.03;;
21505;SDS011;10914;48.886;9.394;2022-08-19T13:42:56;48.88;;;44.72;;
21505;SDS011;10914;48.886;9.394;2022-08-19T13:45:23;48.53;;;44.45;;
21505;SDS011;10914;48.886;9.394;2022-08-19T13:47:50;54.67;;;49.90;;
21505;SDS011;10914;48.886;9.394;2022-08-19T13:50:17;55.05;;;50.47;;
21505;SDS011;10914;48.886;9.394;2022-08-19T13:52:42;68.88;;;63.75;;
21505;SDS011;10914;48.886;9.394;2022-08-19T13:55:08;83.40;;;77.75;;
21505;SDS011;10914;48.886;9.394;2022-08-19T13:57:34;65.65;;;60.70;;
21505;SDS011;10914;48.886;9.394;2022-08-19T14:00:00;94.28;;;88.18;;
21505;SDS011;10914;48.886;9.394;2022-08-19T14:02:25;63.65;;;58.90;;
21505;SDS011;10914;48.886;9.394;2022-08-19T14:04:51;70.95;;;65.82;;
21505;SDS011;10914;48.886;9.394;2022-08-19T14:07:16;71.65;;;66.22;;
21505;SDS011;10914;48.886;9.394;2022-08-19T14:09:41;57.05;;;52.50;;
21505;SDS011;10914;48.886;9.394;2022-08-19T14:12:07;60.95;;;56.03;;
21505;SDS011;10914;48.886;9.394;2022-08-19T14:14:35;49.95;;;45.95;;
21505;SDS011;10914;48.886;9.394;2022-08-19T14:17:01;51.33;;;47.20;;
21505;SDS011;10914;48.886;9.394;2022-08-19T14:19:26;49.97;;;45.92;;
21505;SDS011;10914;48.886;9.394;2022-08-19T14:21:51;51.22;;;46.88;;
21505;SDS011;10914;48.886;9.394;2022-08-19T14:24:16;52.47;;;48.00;;
21505;SDS011;10914;48.886;9.394;2022-08-19T14:26:42;48.33;;;44.37;;
21505;SDS011;10914;48.886;9.394;2022-08-19T14:29:07;48.97;;;44.92;;
21505;SDS011;10914;48.886;9.394;2022-08-19T14:31:32;48.80;;;44.53;;